首页
METAR-TAF:

METAR-TAF

机场 :

奧爾托國際機場

拉巴斯, 玻利维亚

纬度: 16-31S, 经度: 068-11W, 海拔: 4058米

当前天气观测

该预报发布于24分钟前的21:00 UTC
风速9节,风向东转东南
温度 11°C
湿度 43%
气压 1039 hPa
能见度10公里或以上
少量云层高于1700英尺
少量云层高于2000英尺, 积雨云.
散云层高于20000英尺

METAR: SLLP 182100Z 12009KT 9999 FEW017 FEW020CB SCT200 11/M01 Q1039

时间: 17:24 (21:24 UTC)

预报

该预报发布于5小时和24分钟前的16:00 UTC
预报有效从18日的 18点(UTC)到 19日的 18点(UTC)
风速10节,风向南转南东,有时为20节阵风
能见度10公里或以上
散云层高于1700英尺
成为
从 19日的 03点(UTC)到 19日的 05点(UTC)
风速6节,风向东转东北
能見度: 3000
少量云层高于200英尺
散云层高于900英尺
附近有雾
成为
从 19日的 12点(UTC)到 日的 点(UTC)
能见度10公里或以上
少量云层高于1700英尺

TAF: SLLP 181600Z 1818/1918 16010G20KT 9999 SCT017 TX15/1820Z TNM03/ 1910Z BECMG 1903/1905 07006KT 3000E VCFG FEW002 SCT009 BECMG 1912/ 1914 9999 NSW FEW017

超过4000个机场的气象观测和天气预报(METAR&TAF报告)。

可查询的气象台以黄色和红色小点在地图上表示。

将鼠标移到小点上方,可查看气象台名称。

然后点击查看天气观测和预报。

如需切换地图:点击带黑十字的绿色按钮放大地图;点击带横线的绿色按钮缩小地图;或者点击绿色箭头查看邻近地区的地图。


METAR-TAF: